createdAt,value
2018-12-05T00:00:30.092Z,95.80
2018-12-05T00:02:59.481Z,95.70
2018-12-05T00:05:28.917Z,97.67
2018-12-05T00:07:58.317Z,95.40
2018-12-05T00:10:27.727Z,96.47
2018-12-05T00:12:57.109Z,92.30
2018-12-05T00:15:26.530Z,93.57
2018-12-05T00:17:55.927Z,94.27
2018-12-05T00:20:25.382Z,95.37
2018-12-05T00:22:54.801Z,91.23
2018-12-05T00:25:24.225Z,91.67
2018-12-05T00:27:53.615Z,91.63
2018-12-05T00:30:23.024Z,91.07
2018-12-05T00:32:52.475Z,90.50
2018-12-05T00:35:21.953Z,91.63
2018-12-05T00:37:51.389Z,89.73
2018-12-05T00:40:20.817Z,88.53
2018-12-05T00:42:50.218Z,89.93
2018-12-05T00:45:19.620Z,87.53
2018-12-05T00:47:49.044Z,89.77
2018-12-05T00:50:18.425Z,88.13
2018-12-05T00:52:47.804Z,86.40
2018-12-05T00:55:17.195Z,88.53
2018-12-05T00:57:46.576Z,86.67
2018-12-05T01:00:15.972Z,85.47
2018-12-05T01:02:46.252Z,86.27
2018-12-05T01:05:15.668Z,82.77
2018-12-05T01:07:45.092Z,83.30
2018-12-05T01:10:14.484Z,82.57
2018-12-05T01:12:43.898Z,79.80
2018-12-05T01:15:14.336Z,81.97
2018-12-05T01:17:43.761Z,80.47
2018-12-05T01:20:13.164Z,80.00
2018-12-05T01:22:42.596Z,80.53
2018-12-05T01:25:11.987Z,78.33
2018-12-05T01:27:41.440Z,77.60
2018-12-05T01:30:11.354Z,78.13
2018-12-05T01:32:40.748Z,77.33
2018-12-05T01:35:10.220Z,76.10
2018-12-05T01:37:39.600Z,75.87
2018-12-05T01:40:09.061Z,77.03
2018-12-05T01:42:38.467Z,74.93
2018-12-05T01:45:07.895Z,73.87
2018-12-05T01:47:37.293Z,73.90
2018-12-05T01:50:07.800Z,74.80
2018-12-05T01:52:37.197Z,74.07
2018-12-05T01:55:06.616Z,73.87
2018-12-05T01:57:36.031Z,72.97
2018-12-05T02:00:06.144Z,73.67
2018-12-05T02:02:35.565Z,71.83
2018-12-05T02:05:04.972Z,70.40
2018-12-05T02:07:34.356Z,71.03
2018-12-05T02:10:03.820Z,70.07
2018-12-05T02:12:33.201Z,69.10
2018-12-05T02:15:02.600Z,68.93
2018-12-05T02:17:31.987Z,68.70
2018-12-05T02:20:01.390Z,67.70
2018-12-05T02:22:30.792Z,65.73
2018-12-05T02:25:00.189Z,66.33
2018-12-05T02:27:34.523Z,65.40
2018-12-05T02:30:09.633Z,66.03
2018-12-05T02:32:39.024Z,66.70
2018-12-05T02:35:09.509Z,63.87
2018-12-05T02:37:39.205Z,62.70
2018-12-05T02:40:09.776Z,62.20
2018-12-05T02:42:39.157Z,62.00
2018-12-05T02:45:09.010Z,61.50
2018-12-05T02:47:38.395Z,63.10
2018-12-05T02:50:09.730Z,61.00
2018-12-05T02:52:39.368Z,59.10
2018-12-05T02:55:08.764Z,61.10
2018-12-05T02:57:38.461Z,59.97
2018-12-05T03:00:07.968Z,60.07
2018-12-05T03:02:37.368Z,59.07
2018-12-05T03:05:07.925Z,60.63
2018-12-05T03:07:37.569Z,57.97
2018-12-05T03:10:07.021Z,58.47
2018-12-05T03:12:36.452Z,57.10
2018-12-05T03:15:06.209Z,57.13
2018-12-05T03:17:35.623Z,56.17
2018-12-05T03:20:05.480Z,56.57
2018-12-05T03:22:34.960Z,54.67
2018-12-05T03:25:04.360Z,55.23
2018-12-05T03:27:33.853Z,55.23
2018-12-05T03:30:03.264Z,53.10
2018-12-05T03:32:34.706Z,54.83
2018-12-05T03:35:04.253Z,53.33
2018-12-05T03:37:33.661Z,53.80
2018-12-05T03:40:03.077Z,51.97
2018-12-05T03:42:34.449Z,52.97
2018-12-05T03:45:04.036Z,51.73
2018-12-05T03:47:33.452Z,53.67
2018-12-05T03:50:03.329Z,52.67
2018-12-05T03:52:32.738Z,53.60
2018-12-05T03:55:02.141Z,57.03
2018-12-05T03:57:31.529Z,57.83
2018-12-05T04:00:00.908Z,68.07
2018-12-05T04:02:30.361Z,62.97
2018-12-05T04:04:59.741Z,67.53
2018-12-05T04:07:29.166Z,65.60
2018-12-05T04:09:58.546Z,75.60
2018-12-05T04:12:27.954Z,76.27
2018-12-05T04:14:57.394Z,77.00
2018-12-05T04:17:26.820Z,79.03
2018-12-05T04:19:56.266Z,78.20
2018-12-05T04:22:25.697Z,75.40
2018-12-05T04:24:55.279Z,76.27
2018-12-05T04:27:26.885Z,79.40
2018-12-05T04:29:56.334Z,79.10
2018-12-05T04:32:25.726Z,76.37
2018-12-05T04:34:55.183Z,78.73
2018-12-05T04:37:24.586Z,79.83
2018-12-05T04:39:54.012Z,98.00
2018-12-05T04:42:23.438Z,83.53
2018-12-05T04:44:52.905Z,80.50
2018-12-05T04:47:22.331Z,84.70
2018-12-05T04:49:51.758Z,80.50
2018-12-05T04:52:21.144Z,83.00
2018-12-05T04:54:50.565Z,80.80
2018-12-05T04:57:19.968Z,79.60
2018-12-05T04:59:49.881Z,80.10
2018-12-05T05:02:19.275Z,79.13
2018-12-05T05:04:55.321Z,78.87
2018-12-05T05:07:24.720Z,78.73
2018-12-05T05:09:54.272Z,79.47
2018-12-05T05:12:23.670Z,77.17
2018-12-05T05:14:53.049Z,78.53
2018-12-05T05:17:22.452Z,76.83
2018-12-05T05:19:51.835Z,72.07
2018-12-05T05:22:21.216Z,74.57
2018-12-05T05:24:50.654Z,74.17
2018-12-05T05:27:20.044Z,71.97
2018-12-05T05:29:49.446Z,71.33
2018-12-05T05:32:18.904Z,72.63
2018-12-05T05:34:48.328Z,70.67
2018-12-05T05:37:17.728Z,71.17
2018-12-05T05:39:48.168Z,69.07
2018-12-05T05:42:17.576Z,67.67
2018-12-05T05:44:47.037Z,65.73
2018-12-05T05:47:16.461Z,65.93
2018-12-05T05:49:45.910Z,64.90
2018-12-05T05:52:15.296Z,63.60
2018-12-05T05:54:44.713Z,66.77
2018-12-05T05:57:14.121Z,57.07
2018-12-05T05:59:43.528Z,50.47
2018-12-05T06:02:12.920Z,43.20
2018-12-05T06:04:42.364Z,39.03
2018-12-05T06:07:11.772Z,34.80
2018-12-05T06:09:41.153Z,31.30
2018-12-05T06:12:10.528Z,29.43
2018-12-05T06:14:39.952Z,26.80
2018-12-05T06:17:09.389Z,25.30
2018-12-05T06:19:38.806Z,22.60
2018-12-05T06:22:08.241Z,21.10
2018-12-05T06:24:37.662Z,22.63
2018-12-05T06:27:07.063Z,23.07
2018-12-05T06:29:36.492Z,23.30
2018-12-05T06:32:05.888Z,22.67
2018-12-05T06:34:35.279Z,22.83
2018-12-05T06:37:04.681Z,23.17
2018-12-05T06:39:34.099Z,24.10
2018-12-05T06:42:03.488Z,23.93
2018-12-05T06:44:32.893Z,25.20
2018-12-05T06:47:02.400Z,25.87
2018-12-05T06:49:31.832Z,28.20
2018-12-05T06:52:01.237Z,27.17
2018-12-05T06:54:30.646Z,29.30
2018-12-05T06:57:00.041Z,29.83
2018-12-05T06:59:29.461Z,28.60
2018-12-05T07:01:58.975Z,30.07
2018-12-05T07:04:28.409Z,30.13
2018-12-05T07:07:04.364Z,32.13
2018-12-05T07:09:33.782Z,30.83
2018-12-05T07:12:03.193Z,32.73
2018-12-05T07:14:32.602Z,32.83
2018-12-05T07:17:02.000Z,31.73
2018-12-05T07:19:31.396Z,33.67
2018-12-05T07:22:00.796Z,31.93
2018-12-05T07:24:30.183Z,33.20
2018-12-05T07:26:59.600Z,33.33
2018-12-05T07:29:29.000Z,32.43
2018-12-05T07:31:58.445Z,34.03
2018-12-05T07:34:27.844Z,32.43
2018-12-05T07:36:57.283Z,33.27
2018-12-05T07:39:26.672Z,33.53
2018-12-05T07:41:56.111Z,32.73
2018-12-05T07:44:25.494Z,32.20
2018-12-05T07:46:54.923Z,33.20
2018-12-05T07:49:24.680Z,33.50
2018-12-05T07:51:54.090Z,34.53
2018-12-05T07:54:23.492Z,33.43
2018-12-05T07:56:53.065Z,33.27
2018-12-05T07:59:22.480Z,33.00
2018-12-05T08:01:52.036Z,33.30
2018-12-05T08:04:21.497Z,33.60
2018-12-05T08:06:50.992Z,33.13
2018-12-05T08:09:20.422Z,33.87
2018-12-05T08:11:49.848Z,33.93
2018-12-05T08:14:19.252Z,31.83
2018-12-05T08:16:48.749Z,32.07
2018-12-05T08:19:18.152Z,33.80
2018-12-05T08:21:47.661Z,33.87
2018-12-05T08:24:17.059Z,33.10
2018-12-05T08:26:46.460Z,31.30
2018-12-05T08:29:15.866Z,33.13
2018-12-05T08:31:45.248Z,31.93
2018-12-05T08:34:14.655Z,31.40
2018-12-05T08:36:44.069Z,31.13
2018-12-05T08:39:13.473Z,31.83
2018-12-05T08:41:42.865Z,32.87
2018-12-05T08:44:12.270Z,31.50
2018-12-05T08:46:42.067Z,31.97
2018-12-05T08:49:11.495Z,31.00
2018-12-05T08:51:40.895Z,30.77
2018-12-05T08:54:10.651Z,31.83
2018-12-05T08:56:40.089Z,31.43
2018-12-05T08:59:09.782Z,30.47
2018-12-05T09:01:39.165Z,30.40
2018-12-05T09:04:09.389Z,30.77
2018-12-05T09:06:38.820Z,30.73
2018-12-05T09:09:08.260Z,29.90
2018-12-05T09:11:37.633Z,28.70
2018-12-05T09:14:07.133Z,30.67
2018-12-05T09:16:36.537Z,30.30
2018-12-05T09:19:06.021Z,29.20
2018-12-05T09:21:35.396Z,28.53
2018-12-05T09:24:04.810Z,29.37
2018-12-05T09:26:34.234Z,28.93
2018-12-05T09:29:03.783Z,29.23
2018-12-05T09:31:33.164Z,27.97
2018-12-05T09:34:02.560Z,28.33
2018-12-05T09:36:31.981Z,27.67
2018-12-05T09:39:01.420Z,28.60
2018-12-05T09:41:32.014Z,28.03
2018-12-05T09:44:01.435Z,27.40
2018-12-05T09:46:31.932Z,27.13
2018-12-05T09:49:01.336Z,27.17
2018-12-05T09:51:30.732Z,27.20
2018-12-05T09:54:00.110Z,26.50
2018-12-05T09:56:30.564Z,26.80
2018-12-05T09:58:59.957Z,27.23
2018-12-05T10:01:29.354Z,26.33
2018-12-05T10:03:58.748Z,26.37
2018-12-05T10:06:28.147Z,26.13
2018-12-05T10:08:57.528Z,25.57
2018-12-05T10:11:26.915Z,24.83
2018-12-05T10:13:56.361Z,26.03
2018-12-05T10:16:25.807Z,24.47
2018-12-05T10:18:55.205Z,25.53
2018-12-05T10:21:24.625Z,25.27
2018-12-05T10:23:54.010Z,25.83
2018-12-05T10:26:23.396Z,25.77
2018-12-05T10:28:52.899Z,24.27
2018-12-05T10:31:22.312Z,22.97
2018-12-05T10:33:51.700Z,24.00
2018-12-05T10:36:21.240Z,23.90
2018-12-05T10:38:50.617Z,23.53
2018-12-05T10:41:20.038Z,24.60
2018-12-05T10:43:49.417Z,23.23
2018-12-05T10:46:18.840Z,23.17
2018-12-05T10:48:48.220Z,22.20
2018-12-05T10:51:17.620Z,22.50
2018-12-05T10:53:47.047Z,23.30
2018-12-05T10:56:16.453Z,22.00
2018-12-05T10:58:45.860Z,22.20
2018-12-05T11:01:20.468Z,22.60
2018-12-05T11:03:49.944Z,22.00
2018-12-05T11:06:24.416Z,21.60
2018-12-05T11:08:59.036Z,22.33
2018-12-05T11:11:33.600Z,20.97
2018-12-05T11:14:08.149Z,21.37
2018-12-05T11:16:41.696Z,20.93
2018-12-05T11:19:16.336Z,20.87
2018-12-05T11:21:50.972Z,20.93
2018-12-05T11:24:37.640Z,20.27
2018-12-05T11:27:07.293Z,19.83
2018-12-05T11:29:36.704Z,19.63
2018-12-05T11:32:06.124Z,21.03
2018-12-05T11:34:35.524Z,20.00
2018-12-05T11:37:04.920Z,19.87
2018-12-05T11:39:34.350Z,19.50
2018-12-05T11:42:03.788Z,20.43
2018-12-05T11:44:33.184Z,19.70
2018-12-05T11:47:02.593Z,19.63
2018-12-05T11:49:32.376Z,19.73
2018-12-05T11:52:01.772Z,19.33
2018-12-05T11:54:31.185Z,20.00
2018-12-05T11:57:00.624Z,19.33
2018-12-05T11:59:30.013Z,19.43
2018-12-05T12:01:59.434Z,18.23
2018-12-05T12:04:28.816Z,17.60
2018-12-05T12:06:58.250Z,18.43
2018-12-05T12:09:27.652Z,17.47
2018-12-05T12:11:57.041Z,18.10
2018-12-05T12:14:26.446Z,17.53
2018-12-05T12:16:55.893Z,17.53
2018-12-05T12:19:25.281Z,17.20
2018-12-05T12:21:54.700Z,17.53
2018-12-05T12:24:24.110Z,17.93
2018-12-05T12:26:53.515Z,17.67
2018-12-05T12:29:22.925Z,16.83
2018-12-05T12:31:52.369Z,16.93
2018-12-05T12:34:21.752Z,16.47
2018-12-05T12:36:51.188Z,16.17
2018-12-05T12:39:20.581Z,16.73
2018-12-05T12:41:50.017Z,16.63
2018-12-05T12:44:19.412Z,16.20
2018-12-05T12:46:48.826Z,16.27
2018-12-05T12:49:18.227Z,16.13
2018-12-05T12:51:47.648Z,16.00
2018-12-05T12:54:17.046Z,15.90
2018-12-05T12:56:46.442Z,16.03
2018-12-05T12:59:15.826Z,15.10
2018-12-05T13:01:45.225Z,15.43
2018-12-05T13:04:14.616Z,15.13
2018-12-05T13:06:44.010Z,15.70
2018-12-05T13:09:13.408Z,14.30
2018-12-05T13:11:43.889Z,14.43
2018-12-05T13:14:13.504Z,14.40
2018-12-05T13:16:42.952Z,14.03
2018-12-05T13:19:12.446Z,14.37
2018-12-05T13:21:41.836Z,14.60
2018-12-05T13:24:11.301Z,14.63
2018-12-05T13:26:40.684Z,13.63
2018-12-05T13:29:10.084Z,14.23
2018-12-05T13:31:39.544Z,13.70
2018-12-05T13:34:09.017Z,13.20
2018-12-05T13:36:38.416Z,13.90
2018-12-05T13:39:08.784Z,13.20
2018-12-05T13:41:39.641Z,12.33
2018-12-05T13:44:09.119Z,12.57
2018-12-05T13:46:38.549Z,12.93
2018-12-05T13:49:09.152Z,11.97
2018-12-05T13:51:38.568Z,12.87
2018-12-05T13:54:08.032Z,12.27
2018-12-05T13:56:37.408Z,11.90
2018-12-05T13:59:06.852Z,12.20
2018-12-05T14:01:36.313Z,12.13
2018-12-05T14:04:05.770Z,12.00
2018-12-05T14:06:35.212Z,11.60
2018-12-05T14:09:06.116Z,12.30
2018-12-05T14:11:36.588Z,11.73
2018-12-05T14:14:06.040Z,11.43
2018-12-05T14:16:35.448Z,12.23
2018-12-05T14:19:04.849Z,11.60
2018-12-05T14:21:34.266Z,11.50
2018-12-05T14:24:03.709Z,12.30
2018-12-05T14:26:33.161Z,11.23
2018-12-05T14:29:03.699Z,10.60
2018-12-05T14:31:33.120Z,10.73
2018-12-05T14:34:02.502Z,10.33
2018-12-05T14:36:31.927Z,10.80
2018-12-05T14:39:01.348Z,10.40
2018-12-05T14:41:32.026Z,10.70
2018-12-05T14:44:02.044Z,10.37
2018-12-05T14:46:32.162Z,10.30
2018-12-05T14:49:01.593Z,9.90
2018-12-05T14:51:31.024Z,9.13
2018-12-05T14:54:00.412Z,9.83
2018-12-05T14:56:29.851Z,10.27
2018-12-05T14:58:59.267Z,10.20
2018-12-05T15:01:28.709Z,9.47
2018-12-05T15:03:58.125Z,9.27
2018-12-05T15:06:27.533Z,9.70
2018-12-05T15:08:56.967Z,9.80
2018-12-05T15:11:27.002Z,9.20
2018-12-05T15:13:56.425Z,8.57
2018-12-05T15:16:25.809Z,9.07
2018-12-05T15:18:55.248Z,8.80
2018-12-05T15:21:24.656Z,9.03
2018-12-05T15:23:54.078Z,9.27
2018-12-05T15:26:23.476Z,8.63
2018-12-05T15:28:52.902Z,8.90
2018-12-05T15:31:22.265Z,8.67
2018-12-05T15:33:51.686Z,8.50
2018-12-05T15:36:21.072Z,9.27
2018-12-05T15:38:50.491Z,9.10
2018-12-05T15:41:19.930Z,8.80
2018-12-05T15:43:49.381Z,9.23
2018-12-05T15:46:18.756Z,8.63
2018-12-05T15:48:48.184Z,8.73
2018-12-05T15:51:17.581Z,9.03
2018-12-05T15:53:46.984Z,8.67
2018-12-05T15:56:16.348Z,8.50
2018-12-05T15:58:45.785Z,8.50
2018-12-05T16:01:15.178Z,7.87
2018-12-05T16:03:44.573Z,8.57
2018-12-05T16:06:13.997Z,8.50
2018-12-05T16:08:43.416Z,8.43
2018-12-05T16:11:12.809Z,7.80
2018-12-05T16:13:42.188Z,8.37
2018-12-05T16:16:11.560Z,8.00
2018-12-05T16:18:41.040Z,8.03
2018-12-05T16:21:10.433Z,8.80
2018-12-05T16:23:39.815Z,8.00
2018-12-05T16:26:10.831Z,7.93
2018-12-05T16:28:40.607Z,7.50
2018-12-05T16:31:10.000Z,7.77
2018-12-05T16:33:39.401Z,8.10
2018-12-05T16:36:11.227Z,7.40
2018-12-05T16:38:41.032Z,8.10
2018-12-05T16:41:11.454Z,8.27
2018-12-05T16:43:40.868Z,8.07
2018-12-05T16:46:10.284Z,7.60
2018-12-05T16:48:39.661Z,7.43
2018-12-05T16:51:09.059Z,7.40
2018-12-05T16:53:38.464Z,7.30
2018-12-05T16:56:07.931Z,7.57
2018-12-05T16:58:37.425Z,7.60
2018-12-05T17:01:06.864Z,7.60
2018-12-05T17:03:36.251Z,7.20
2018-12-05T17:06:05.723Z,8.00
2018-12-05T17:08:35.100Z,7.23
2018-12-05T17:11:04.497Z,7.60
2018-12-05T17:13:35.961Z,11.20
2018-12-05T17:16:05.370Z,16.33
2018-12-05T17:18:34.780Z,20.70
2018-12-05T17:21:04.170Z,21.83
2018-12-05T17:23:33.589Z,31.67
2018-12-05T17:26:02.988Z,25.93
2018-12-05T17:28:32.428Z,24.20
2018-12-05T17:31:01.815Z,23.37
2018-12-05T17:33:31.241Z,24.00
2018-12-05T17:36:00.628Z,25.93
2018-12-05T17:38:30.049Z,22.73
2018-12-05T17:40:59.455Z,23.87
2018-12-05T17:43:28.888Z,22.53
2018-12-05T17:45:58.281Z,23.07
2018-12-05T17:48:27.705Z,23.33
2018-12-05T17:50:57.132Z,21.70
2018-12-05T17:53:26.712Z,21.50
2018-12-05T17:55:56.150Z,20.60
2018-12-05T17:58:25.572Z,21.10
2018-12-05T18:00:54.987Z,21.13
2018-12-05T18:03:24.410Z,21.57
2018-12-05T18:05:53.812Z,19.83
2018-12-05T18:08:23.224Z,20.47
2018-12-05T18:10:52.603Z,19.57
2018-12-05T18:13:22.033Z,19.57
2018-12-05T18:15:51.413Z,19.13
2018-12-05T18:18:21.959Z,19.97
2018-12-05T18:20:51.552Z,19.90
2018-12-05T18:23:20.999Z,20.97
2018-12-05T18:25:52.347Z,19.53
2018-12-05T18:28:22.664Z,20.67
2018-12-05T18:30:52.048Z,20.47
2018-12-05T18:33:21.473Z,21.40
2018-12-05T18:35:50.904Z,20.13
2018-12-05T18:38:20.313Z,21.80
2018-12-05T18:40:49.754Z,31.27
2018-12-05T18:43:19.336Z,39.20
2018-12-05T18:45:48.868Z,48.77
2018-12-05T18:48:18.632Z,46.00
2018-12-05T18:50:48.105Z,42.17
2018-12-05T18:53:17.605Z,48.80
2018-12-05T18:55:47.096Z,57.30
2018-12-05T18:58:16.572Z,58.53
2018-12-05T19:00:46.027Z,56.30
2018-12-05T19:03:15.448Z,55.37
2018-12-05T19:05:46.247Z,53.70
2018-12-05T19:08:15.962Z,53.80
2018-12-05T19:10:45.453Z,53.47
2018-12-05T19:13:15.230Z,52.50
2018-12-05T19:15:44.653Z,47.97
2018-12-05T19:18:14.058Z,50.80
2018-12-05T19:20:43.472Z,48.10
2018-12-05T19:23:13.225Z,50.80
2018-12-05T19:25:42.750Z,49.57
2018-12-05T19:28:12.181Z,49.93
2018-12-05T19:30:41.597Z,49.07
2018-12-05T19:33:11.608Z,48.33
2018-12-05T19:35:41.021Z,49.77
2018-12-05T19:38:11.105Z,49.00
2018-12-05T19:40:41.191Z,48.97
2018-12-05T19:43:11.532Z,48.23
2018-12-05T19:45:41.688Z,48.70
2018-12-05T19:48:11.191Z,48.57
2018-12-05T19:50:40.633Z,47.90
2018-12-05T19:53:10.085Z,48.53
2018-12-05T19:55:39.589Z,47.23
2018-12-05T19:58:10.620Z,46.80
2018-12-05T20:00:40.160Z,47.73
2018-12-05T20:03:09.585Z,47.00
2018-12-05T20:05:39.024Z,47.63
2018-12-05T20:08:08.986Z,46.57
2018-12-05T20:10:38.394Z,44.77
2018-12-05T20:13:07.839Z,44.20
2018-12-05T20:15:37.282Z,46.80
2018-12-05T20:18:06.758Z,48.23
2018-12-05T20:20:36.859Z,48.87
2018-12-05T20:23:06.326Z,48.47
2018-12-05T20:25:35.745Z,48.50
2018-12-05T20:28:05.327Z,49.07
2018-12-05T20:30:34.739Z,49.57
2018-12-05T20:33:04.165Z,48.87
2018-12-05T20:35:33.588Z,53.53
2018-12-05T20:38:03.588Z,53.10
2018-12-05T20:40:33.052Z,53.17
2018-12-05T20:43:02.476Z,53.47
2018-12-05T20:45:31.924Z,55.53
2018-12-05T20:48:01.333Z,54.53
2018-12-05T20:50:30.796Z,54.67
2018-12-05T20:53:00.296Z,54.23
2018-12-05T20:55:29.735Z,55.27
2018-12-05T20:57:59.147Z,57.27
2018-12-05T21:00:28.591Z,54.73
2018-12-05T21:02:58.024Z,55.17
2018-12-05T21:05:27.485Z,57.33
2018-12-05T21:07:56.905Z,55.87
2018-12-05T21:10:26.331Z,56.03
2018-12-05T21:12:55.793Z,56.63
2018-12-05T21:15:25.218Z,59.63
2018-12-05T21:17:54.608Z,65.07
2018-12-05T21:20:24.072Z,63.37
2018-12-05T21:22:54.449Z,61.97
2018-12-05T21:25:23.925Z,63.87
2018-12-05T21:27:53.394Z,62.83
2018-12-05T21:30:22.810Z,67.70
2018-12-05T21:32:52.797Z,64.23
2018-12-05T21:35:22.251Z,63.47
2018-12-05T21:37:51.680Z,63.10
2018-12-05T21:40:22.140Z,62.23
2018-12-05T21:42:51.585Z,62.90
2018-12-05T21:45:21.011Z,61.07
2018-12-05T21:47:50.437Z,59.77
2018-12-05T21:50:19.840Z,59.37
2018-12-05T21:52:49.269Z,61.17
2018-12-05T21:55:19.642Z,59.77
2018-12-05T21:57:49.057Z,59.47
2018-12-05T22:00:19.009Z,58.23
2018-12-05T22:02:48.436Z,59.13
2018-12-05T22:05:17.992Z,56.63
2018-12-05T22:07:47.422Z,56.07
2018-12-05T22:10:16.826Z,56.07
2018-12-05T22:12:46.267Z,56.47
2018-12-05T22:15:15.649Z,54.80
2018-12-05T22:17:45.057Z,55.53
2018-12-05T22:20:14.489Z,54.93
2018-12-05T22:22:43.933Z,55.03
2018-12-05T22:25:13.337Z,57.90
2018-12-05T22:27:42.759Z,55.97
2018-12-05T22:30:12.141Z,56.87
2018-12-05T22:32:41.543Z,55.37
2018-12-05T22:35:10.949Z,57.10
2018-12-05T22:37:40.341Z,55.70
2018-12-05T22:40:10.180Z,55.93
2018-12-05T22:42:39.641Z,55.90
2018-12-05T22:45:09.067Z,54.40
2018-12-05T22:47:38.444Z,54.53
2018-12-05T22:50:08.637Z,53.60
2018-12-05T22:52:38.109Z,55.27
2018-12-05T22:55:07.559Z,53.87
2018-12-05T22:57:36.991Z,56.03
2018-12-05T23:00:11.097Z,56.73
2018-12-05T23:02:40.496Z,56.40
2018-12-05T23:05:09.988Z,60.57
2018-12-05T23:07:39.407Z,56.07
2018-12-05T23:10:08.847Z,60.23
2018-12-05T23:12:38.254Z,100.60
2018-12-05T23:15:07.850Z,78.07
2018-12-05T23:17:37.283Z,83.53
2018-12-05T23:20:07.145Z,91.77
2018-12-05T23:22:36.544Z,84.57
2018-12-05T23:25:05.992Z,84.07
2018-12-05T23:27:35.393Z,85.63
2018-12-05T23:30:06.175Z,96.80
2018-12-05T23:32:35.588Z,99.50
2018-12-05T23:35:05.112Z,106.43
2018-12-05T23:37:34.541Z,108.73
2018-12-05T23:40:03.962Z,107.10
2018-12-05T23:42:33.424Z,107.50
2018-12-05T23:45:02.877Z,107.37
2018-12-05T23:47:32.313Z,107.63
2018-12-05T23:50:01.725Z,105.40
2018-12-05T23:52:31.148Z,101.77
2018-12-05T23:55:00.576Z,103.03
2018-12-05T23:57:31.065Z,101.90
